Sarco, Texas
Current Conditions -  °F | °C
As of 8:55 PM on Wednesday 26 Nov 2014 (Local Time) from KBEA Reporting Station
Clear Clear  
Wind Chill: 60°   Ceiling: Unl
Heat Index: 60°   Visibility: 10mi
Dew Point: 38°   Wind: 3mph
Humidity: 46%   Direction: 200°SSW
Pressure: 30.27"   Gusts: NA
Location:  28.6563°N, 97.4287°W
Report Text: KBEA 270255Z AUTO 20003KT 10SM CLR 15/04 A3027 RMK AO2 T01530036
Loading
Personal Weather Stations






























Interactive Weather Map New forecast layout! Learn more

10-Day Weather Forecast

Advertisements
Track Severe Weather on mobile